sensor_id;sensor_type;location;lat;lon;timestamp;temperature;humidity
13470;DHT22;6807;48.682;9.032;2023-02-08T00:00:08;-5.00;99.90
13470;DHT22;6807;48.682;9.032;2023-02-08T00:05:50;-5.20;99.90
13470;DHT22;6807;48.682;9.032;2023-02-08T00:08:45;-3.80;99.90
13470;DHT22;6807;48.682;9.032;2023-02-08T00:11:20;-4.20;99.90
13470;DHT22;6807;48.682;9.032;2023-02-08T00:13:58;-5.20;99.90
13470;DHT22;6807;48.682;9.032;2023-02-08T00:28:52;-6.50;99.90
13470;DHT22;6807;48.682;9.032;2023-02-08T00:35:56;-7.00;99.90
13470;DHT22;6807;48.682;9.032;2023-02-08T01:10:18;-6.20;99.90
13470;DHT22;6807;48.682;9.032;2023-02-08T01:13:28;-7.70;99.90
13470;DHT22;6807;48.682;9.032;2023-02-08T01:16:20;-7.10;99.90
13470;DHT22;6807;48.682;9.032;2023-02-08T01:19:11;-4.70;99.90
13470;DHT22;6807;48.682;9.032;2023-02-08T01:22:12;-5.10;99.90
13470;DHT22;6807;48.682;9.032;2023-02-08T01:24:56;-8.00;99.90
13470;DHT22;6807;48.682;9.032;2023-02-08T01:31:26;-7.10;99.90
13470;DHT22;6807;48.682;9.032;2023-02-08T01:34:39;-6.50;99.90
13470;DHT22;6807;48.682;9.032;2023-02-08T01:47:37;-6.90;99.90
13470;DHT22;6807;48.682;9.032;2023-02-08T01:50:52;-5.30;99.90
13470;DHT22;6807;48.682;9.032;2023-02-08T01:53:52;-6.40;99.90
13470;DHT22;6807;48.682;9.032;2023-02-08T01:56:31;-6.60;99.90
13470;DHT22;6807;48.682;9.032;2023-02-08T02:03:09;-5.90;99.90
13470;DHT22;6807;48.682;9.032;2023-02-08T02:09:44;-8.10;99.90
13470;DHT22;6807;48.682;9.032;2023-02-08T02:12:51;-6.40;99.90
13470;DHT22;6807;48.682;9.032;2023-02-08T02:37:05;-7.10;99.90
13470;DHT22;6807;48.682;9.032;2023-02-08T02:43:35;-7.20;1.00
13470;DHT22;6807;48.682;9.032;2023-02-08T02:46:42;-8.30;1.00
13470;DHT22;6807;48.682;9.032;2023-02-08T02:56:38;-7.40;1.00
13470;DHT22;6807;48.682;9.032;2023-02-08T02:59:34;-6.00;1.00
13470;DHT22;6807;48.682;9.032;2023-02-08T03:02:25;-7.70;1.00
13470;DHT22;6807;48.682;9.032;2023-02-08T03:05:17;-7.10;1.00
13470;DHT22;6807;48.682;9.032;2023-02-08T03:11:20;-7.30;1.00
13470;DHT22;6807;48.682;9.032;2023-02-08T03:17:17;-7.30;1.00
13470;DHT22;6807;48.682;9.032;2023-02-08T03:20:10;-6.40;1.00
13470;DHT22;6807;48.682;9.032;2023-02-08T03:22:59;-6.60;1.00
13470;DHT22;6807;48.682;9.032;2023-02-08T03:25:58;-8.00;1.00
13470;DHT22;6807;48.682;9.032;2023-02-08T03:28:45;-7.60;1.00
13470;DHT22;6807;48.682;9.032;2023-02-08T03:31:18;-6.10;1.00
13470;DHT22;6807;48.682;9.032;2023-02-08T03:34:07;-7.60;1.00
13470;DHT22;6807;48.682;9.032;2023-02-08T03:36:51;-7.40;1.00
13470;DHT22;6807;48.682;9.032;2023-02-08T03:39:32;-9.10;1.00
13470;DHT22;6807;48.682;9.032;2023-02-08T03:42:18;-7.80;1.00
13470;DHT22;6807;48.682;9.032;2023-02-08T03:44:56;-5.80;1.00
13470;DHT22;6807;48.682;9.032;2023-02-08T03:47:28;-7.40;1.00
13470;DHT22;6807;48.682;9.032;2023-02-08T03:50:07;-5.90;1.00
13470;DHT22;6807;48.682;9.032;2023-02-08T03:52:38;-7.60;1.00
13470;DHT22;6807;48.682;9.032;2023-02-08T03:55:14;-7.40;1.00
13470;DHT22;6807;48.682;9.032;2023-02-08T03:58:04;-7.70;1.00
13470;DHT22;6807;48.682;9.032;2023-02-08T04:01:04;-7.30;1.00
13470;DHT22;6807;48.682;9.032;2023-02-08T04:03:36;-8.20;1.00
13470;DHT22;6807;48.682;9.032;2023-02-08T04:06:05;-5.70;1.00
13470;DHT22;6807;48.682;9.032;2023-02-08T04:08:39;-7.20;1.00
13470;DHT22;6807;48.682;9.032;2023-02-08T04:11:11;-5.80;1.00
13470;DHT22;6807;48.682;9.032;2023-02-08T04:14:31;-7.30;99.90
13470;DHT22;6807;48.682;9.032;2023-02-08T04:17:52;-6.90;99.90
13470;DHT22;6807;48.682;9.032;2023-02-08T04:20:40;-7.00;99.90
13470;DHT22;6807;48.682;9.032;2023-02-08T04:24:01;-6.90;99.90
13470;DHT22;6807;48.682;9.032;2023-02-08T04:30:01;-6.10;99.90
13470;DHT22;6807;48.682;9.032;2023-02-08T04:32:50;-5.70;99.90
13470;DHT22;6807;48.682;9.032;2023-02-08T04:35:29;-6.40;99.90
13470;DHT22;6807;48.682;9.032;2023-02-08T04:38:04;-7.00;99.90
13470;DHT22;6807;48.682;9.032;2023-02-08T04:40:36;-7.10;99.90
13470;DHT22;6807;48.682;9.032;2023-02-08T04:43:05;-8.00;99.90
13470;DHT22;6807;48.682;9.032;2023-02-08T04:45:32;-7.30;99.90
13470;DHT22;6807;48.682;9.032;2023-02-08T04:48:02;-7.10;99.90
13470;DHT22;6807;48.682;9.032;2023-02-08T04:50:29;-7.00;99.90
13470;DHT22;6807;48.682;9.032;2023-02-08T04:52:58;-6.90;99.90
13470;DHT22;6807;48.682;9.032;2023-02-08T04:58:39;-6.90;99.90
13470;DHT22;6807;48.682;9.032;2023-02-08T05:44:09;-7.10;99.90
13470;DHT22;6807;48.682;9.032;2023-02-08T05:46:40;-7.40;99.90
13470;DHT22;6807;48.682;9.032;2023-02-08T05:49:30;-7.10;99.90
13470;DHT22;6807;48.682;9.032;2023-02-08T05:52:04;-8.40;99.90
13470;DHT22;6807;48.682;9.032;2023-02-08T05:54:40;-7.60;99.90
13470;DHT22;6807;48.682;9.032;2023-02-08T05:57:07;-7.50;99.90
13470;DHT22;6807;48.682;9.032;2023-02-08T05:59:35;-7.60;99.90
13470;DHT22;6807;48.682;9.032;2023-02-08T06:02:07;-6.20;99.90
13470;DHT22;6807;48.682;9.032;2023-02-08T06:04:34;-5.80;99.90
13470;DHT22;6807;48.682;9.032;2023-02-08T06:07:06;-7.50;99.90
13470;DHT22;6807;48.682;9.032;2023-02-08T06:09:36;-7.50;99.90
13470;DHT22;6807;48.682;9.032;2023-02-08T06:12:04;-7.50;99.90
13470;DHT22;6807;48.682;9.032;2023-02-08T06:14:42;-7.50;99.90
13470;DHT22;6807;48.682;9.032;2023-02-08T06:17:10;-7.40;99.90
13470;DHT22;6807;48.682;9.032;2023-02-08T06:19:51;-7.30;99.90
13470;DHT22;6807;48.682;9.032;2023-02-08T06:22:24;-7.40;99.90
13470;DHT22;6807;48.682;9.032;2023-02-08T06:24:54;-5.60;99.90
13470;DHT22;6807;48.682;9.032;2023-02-08T06:30:44;-6.90;99.90
13470;DHT22;6807;48.682;9.032;2023-02-08T06:43:41;-5.70;99.90
13470;DHT22;6807;48.682;9.032;2023-02-08T08:22:51;-2.30;69.00
13470;DHT22;6807;48.682;9.032;2023-02-08T08:25:31;-2.10;99.90
13470;DHT22;6807;48.682;9.032;2023-02-08T10:12:35;6.90;99.90
13470;DHT22;6807;48.682;9.032;2023-02-08T10:19:05;8.00;1.00
13470;DHT22;6807;48.682;9.032;2023-02-08T10:21:52;7.60;1.00
13470;DHT22;6807;48.682;9.032;2023-02-08T10:27:47;8.00;1.00
13470;DHT22;6807;48.682;9.032;2023-02-08T10:30:26;8.20;1.00
13470;DHT22;6807;48.682;9.032;2023-02-08T10:33:05;9.40;1.00
13470;DHT22;6807;48.682;9.032;2023-02-08T10:35:38;9.00;1.00
13470;DHT22;6807;48.682;9.032;2023-02-08T10:38:23;9.10;1.00
13470;DHT22;6807;48.682;9.032;2023-02-08T10:40:54;8.00;1.00
13470;DHT22;6807;48.682;9.032;2023-02-08T10:43:29;8.90;1.00
13470;DHT22;6807;48.682;9.032;2023-02-08T10:46:04;8.90;1.00
13470;DHT22;6807;48.682;9.032;2023-02-08T10:48:51;11.50;1.00
13470;DHT22;6807;48.682;9.032;2023-02-08T10:51:23;9.20;1.00
13470;DHT22;6807;48.682;9.032;2023-02-08T10:53:50;9.00;1.00
13470;DHT22;6807;48.682;9.032;2023-02-08T10:56:34;8.60;1.00
13470;DHT22;6807;48.682;9.032;2023-02-08T10:59:09;9.10;1.00
13470;DHT22;6807;48.682;9.032;2023-02-08T11:01:38;11.20;1.00
13470;DHT22;6807;48.682;9.032;2023-02-08T11:04:07;7.50;1.00
13470;DHT22;6807;48.682;9.032;2023-02-08T11:06:36;10.80;1.00
13470;DHT22;6807;48.682;9.032;2023-02-08T11:09:03;9.50;1.00
13470;DHT22;6807;48.682;9.032;2023-02-08T11:11:35;10.70;1.00
13470;DHT22;6807;48.682;9.032;2023-02-08T11:14:08;8.80;1.00
13470;DHT22;6807;48.682;9.032;2023-02-08T11:16:40;8.20;1.00
13470;DHT22;6807;48.682;9.032;2023-02-08T11:19:20;10.30;1.00
13470;DHT22;6807;48.682;9.032;2023-02-08T11:21:50;9.40;1.00
13470;DHT22;6807;48.682;9.032;2023-02-08T11:24:25;10.70;1.00
13470;DHT22;6807;48.682;9.032;2023-02-08T11:26:54;9.70;1.00
13470;DHT22;6807;48.682;9.032;2023-02-08T11:29:29;9.90;1.00
13470;DHT22;6807;48.682;9.032;2023-02-08T11:31:59;9.30;1.00
13470;DHT22;6807;48.682;9.032;2023-02-08T11:34:31;9.10;1.00
13470;DHT22;6807;48.682;9.032;2023-02-08T11:37:01;8.20;1.00
13470;DHT22;6807;48.682;9.032;2023-02-08T11:39:32;9.90;1.00
13470;DHT22;6807;48.682;9.032;2023-02-08T11:42:04;8.40;1.00
13470;DHT22;6807;48.682;9.032;2023-02-08T11:44:33;7.70;1.00
13470;DHT22;6807;48.682;9.032;2023-02-08T11:47:07;8.60;1.00
13470;DHT22;6807;48.682;9.032;2023-02-08T11:49:42;9.40;1.00
13470;DHT22;6807;48.682;9.032;2023-02-08T11:52:22;10.40;1.00
13470;DHT22;6807;48.682;9.032;2023-02-08T11:54:54;11.60;1.00
13470;DHT22;6807;48.682;9.032;2023-02-08T11:57:51;11.50;1.00
13470;DHT22;6807;48.682;9.032;2023-02-08T12:00:27;10.80;1.00
13470;DHT22;6807;48.682;9.032;2023-02-08T12:02:58;10.10;1.00
13470;DHT22;6807;48.682;9.032;2023-02-08T12:05:34;9.20;1.00
13470;DHT22;6807;48.682;9.032;2023-02-08T12:08:12;7.90;1.00
13470;DHT22;6807;48.682;9.032;2023-02-08T12:13:52;8.60;1.00
13470;DHT22;6807;48.682;9.032;2023-02-08T12:22:23;9.00;1.00
13470;DHT22;6807;48.682;9.032;2023-02-08T12:24:55;9.20;1.00
13470;DHT22;6807;48.682;9.032;2023-02-08T12:27:36;9.10;1.00
13470;DHT22;6807;48.682;9.032;2023-02-08T12:30:13;10.00;1.00
13470;DHT22;6807;48.682;9.032;2023-02-08T12:33:03;10.70;1.00
13470;DHT22;6807;48.682;9.032;2023-02-08T12:35:53;10.60;1.00
13470;DHT22;6807;48.682;9.032;2023-02-08T12:38:39;10.90;1.00
13470;DHT22;6807;48.682;9.032;2023-02-08T12:41:34;10.10;1.00
13470;DHT22;6807;48.682;9.032;2023-02-08T12:44:13;9.20;1.00
13470;DHT22;6807;48.682;9.032;2023-02-08T12:46:59;9.70;1.00
13470;DHT22;6807;48.682;9.032;2023-02-08T12:49:44;10.40;1.00
13470;DHT22;6807;48.682;9.032;2023-02-08T12:52:31;8.90;1.00
13470;DHT22;6807;48.682;9.032;2023-02-08T12:55:08;10.40;1.00
13470;DHT22;6807;48.682;9.032;2023-02-08T12:57:40;10.30;1.00
13470;DHT22;6807;48.682;9.032;2023-02-08T13:00:17;10.00;1.00
13470;DHT22;6807;48.682;9.032;2023-02-08T13:03:05;8.20;1.00
13470;DHT22;6807;48.682;9.032;2023-02-08T13:05:39;9.80;1.00
13470;DHT22;6807;48.682;9.032;2023-02-08T13:08:15;9.00;1.00
13470;DHT22;6807;48.682;9.032;2023-02-08T13:11:01;10.50;1.00
13470;DHT22;6807;48.682;9.032;2023-02-08T13:13:35;9.20;1.00
13470;DHT22;6807;48.682;9.032;2023-02-08T13:16:08;9.40;1.00
13470;DHT22;6807;48.682;9.032;2023-02-08T13:18:43;9.80;1.00
13470;DHT22;6807;48.682;9.032;2023-02-08T13:21:13;10.50;1.00
13470;DHT22;6807;48.682;9.032;2023-02-08T13:23:54;8.70;1.00
13470;DHT22;6807;48.682;9.032;2023-02-08T13:26:22;10.40;1.00
13470;DHT22;6807;48.682;9.032;2023-02-08T13:28:56;9.70;1.00
13470;DHT22;6807;48.682;9.032;2023-02-08T13:31:27;10.80;1.00
13470;DHT22;6807;48.682;9.032;2023-02-08T13:34:16;8.10;1.00
13470;DHT22;6807;48.682;9.032;2023-02-08T13:36:52;8.40;1.00
13470;DHT22;6807;48.682;9.032;2023-02-08T13:39:30;9.00;1.00
13470;DHT22;6807;48.682;9.032;2023-02-08T13:42:20;11.20;1.00
13470;DHT22;6807;48.682;9.032;2023-02-08T13:44:51;9.10;1.00
13470;DHT22;6807;48.682;9.032;2023-02-08T13:47:25;10.30;1.00
13470;DHT22;6807;48.682;9.032;2023-02-08T13:49:58;9.60;1.00
13470;DHT22;6807;48.682;9.032;2023-02-08T13:52:45;11.10;1.00
13470;DHT22;6807;48.682;9.032;2023-02-08T13:55:49;8.30;1.00
13470;DHT22;6807;48.682;9.032;2023-02-08T14:01:28;8.50;1.00
13470;DHT22;6807;48.682;9.032;2023-02-08T14:04:15;9.70;1.00
13470;DHT22;6807;48.682;9.032;2023-02-08T14:06:47;8.90;1.00
13470;DHT22;6807;48.682;9.032;2023-02-08T14:09:21;9.20;1.00
13470;DHT22;6807;48.682;9.032;2023-02-08T14:11:56;9.90;1.00
13470;DHT22;6807;48.682;9.032;2023-02-08T14:14:27;9.60;1.00
13470;DHT22;6807;48.682;9.032;2023-02-08T14:17:17;9.30;1.00
13470;DHT22;6807;48.682;9.032;2023-02-08T14:19:55;8.80;1.00
13470;DHT22;6807;48.682;9.032;2023-02-08T14:22:33;8.70;1.00
13470;DHT22;6807;48.682;9.032;2023-02-08T14:25:05;9.20;1.00
13470;DHT22;6807;48.682;9.032;2023-02-08T14:27:37;9.50;1.00
13470;DHT22;6807;48.682;9.032;2023-02-08T14:30:21;8.90;1.00
13470;DHT22;6807;48.682;9.032;2023-02-08T14:32:53;9.00;1.00
13470;DHT22;6807;48.682;9.032;2023-02-08T14:35:35;8.50;1.00
13470;DHT22;6807;48.682;9.032;2023-02-08T14:41:43;9.30;1.00
13470;DHT22;6807;48.682;9.032;2023-02-08T14:50:34;9.00;1.00
13470;DHT22;6807;48.682;9.032;2023-02-08T14:53:05;8.50;1.00
13470;DHT22;6807;48.682;9.032;2023-02-08T14:55:45;9.90;1.00
13470;DHT22;6807;48.682;9.032;2023-02-08T14:58:21;8.50;1.00
13470;DHT22;6807;48.682;9.032;2023-02-08T15:00:51;8.50;1.00
13470;DHT22;6807;48.682;9.032;2023-02-08T15:03:19;7.70;1.00
13470;DHT22;6807;48.682;9.032;2023-02-08T15:06:34;7.60;1.00
13470;DHT22;6807;48.682;9.032;2023-02-08T15:09:14;7.80;1.00
13470;DHT22;6807;48.682;9.032;2023-02-08T15:11:57;7.30;1.00
13470;DHT22;6807;48.682;9.032;2023-02-08T15:14:28;8.10;1.00
13470;DHT22;6807;48.682;9.032;2023-02-08T15:16:57;7.90;1.00
13470;DHT22;6807;48.682;9.032;2023-02-08T15:19:29;7.90;1.00
13470;DHT22;6807;48.682;9.032;2023-02-08T15:22:16;7.40;50.10
13470;DHT22;6807;48.682;9.032;2023-02-08T15:24:48;7.30;1.00
13470;DHT22;6807;48.682;9.032;2023-02-08T15:27:23;7.20;1.00
13470;DHT22;6807;48.682;9.032;2023-02-08T15:29:54;6.50;1.00
13470;DHT22;6807;48.682;9.032;2023-02-08T15:32:23;6.00;1.00
13470;DHT22;6807;48.682;9.032;2023-02-08T15:34:53;5.30;1.00
13470;DHT22;6807;48.682;9.032;2023-02-08T15:37:20;5.60;1.00
13470;DHT22;6807;48.682;9.032;2023-02-08T15:39:52;4.10;1.00
13470;DHT22;6807;48.682;9.032;2023-02-08T15:42:22;3.20;1.00
13470;DHT22;6807;48.682;9.032;2023-02-08T15:44:50;4.70;1.00
13470;DHT22;6807;48.682;9.032;2023-02-08T15:47:21;3.70;1.00
13470;DHT22;6807;48.682;9.032;2023-02-08T15:49:52;3.50;1.00
13470;DHT22;6807;48.682;9.032;2023-02-08T15:52:22;3.30;1.00
13470;DHT22;6807;48.682;9.032;2023-02-08T15:54:51;2.90;1.00
13470;DHT22;6807;48.682;9.032;2023-02-08T15:57:28;2.50;1.00
13470;DHT22;6807;48.682;9.032;2023-02-08T15:59:57;1.90;1.00
13470;DHT22;6807;48.682;9.032;2023-02-08T16:02:27;1.60;1.00
13470;DHT22;6807;48.682;9.032;2023-02-08T16:04:58;1.40;1.00
13470;DHT22;6807;48.682;9.032;2023-02-08T16:07:27;1.20;7.00
13470;DHT22;6807;48.682;9.032;2023-02-08T16:09:57;1.10;33.90
13470;DHT22;6807;48.682;9.032;2023-02-08T16:12:26;1.00;1.00
13470;DHT22;6807;48.682;9.032;2023-02-08T16:14:54;0.80;1.00
13470;DHT22;6807;48.682;9.032;2023-02-08T16:17:35;0.80;99.90
13470;DHT22;6807;48.682;9.032;2023-02-08T16:22:53;0.60;1.00
13470;DHT22;6807;48.682;9.032;2023-02-08T16:25:22;0.40;1.00
13470;DHT22;6807;48.682;9.032;2023-02-08T16:27:49;0.30;1.00
13470;DHT22;6807;48.682;9.032;2023-02-08T16:30:18;1.30;1.00
13470;DHT22;6807;48.682;9.032;2023-02-08T16:32:49;0.10;1.00
13470;DHT22;6807;48.682;9.032;2023-02-08T16:35:22;0.00;1.00
13470;DHT22;6807;48.682;9.032;2023-02-08T16:37:53;-0.10;1.00
13470;DHT22;6807;48.682;9.032;2023-02-08T16:40:45;-0.20;1.00
13470;DHT22;6807;48.682;9.032;2023-02-08T16:43:21;-0.20;1.00
13470;DHT22;6807;48.682;9.032;2023-02-08T16:46:18;-0.40;1.00
13470;DHT22;6807;48.682;9.032;2023-02-08T16:48:56;-0.50;1.00
13470;DHT22;6807;48.682;9.032;2023-02-08T16:51:30;-0.60;1.00
13470;DHT22;6807;48.682;9.032;2023-02-08T16:54:04;-0.70;1.00
13470;DHT22;6807;48.682;9.032;2023-02-08T16:56:33;-0.60;1.00
13470;DHT22;6807;48.682;9.032;2023-02-08T16:59:00;-0.70;18.90
13470;DHT22;6807;48.682;9.032;2023-02-08T17:01:27;-0.90;5.40
13470;DHT22;6807;48.682;9.032;2023-02-08T17:03:55;-0.90;10.20
13470;DHT22;6807;48.682;9.032;2023-02-08T17:06:28;-0.40;33.80
13470;DHT22;6807;48.682;9.032;2023-02-08T17:08:55;-0.90;1.00
13470;DHT22;6807;48.682;9.032;2023-02-08T17:11:23;-1.10;1.00
13470;DHT22;6807;48.682;9.032;2023-02-08T17:13:50;-1.10;1.00
13470;DHT22;6807;48.682;9.032;2023-02-08T17:16:43;-1.30;1.00
13470;DHT22;6807;48.682;9.032;2023-02-08T17:19:15;-1.40;1.00
13470;DHT22;6807;48.682;9.032;2023-02-08T17:21:46;-1.40;1.00
13470;DHT22;6807;48.682;9.032;2023-02-08T17:24:16;-1.40;1.00
13470;DHT22;6807;48.682;9.032;2023-02-08T17:26:43;-1.50;1.00
13470;DHT22;6807;48.682;9.032;2023-02-08T17:29:11;-1.50;1.00
13470;DHT22;6807;48.682;9.032;2023-02-08T17:31:38;-1.40;1.00
13470;DHT22;6807;48.682;9.032;2023-02-08T17:34:07;-1.50;1.00
13470;DHT22;6807;48.682;9.032;2023-02-08T17:36:36;-1.50;1.00
13470;DHT22;6807;48.682;9.032;2023-02-08T17:39:04;-1.00;1.00
13470;DHT22;6807;48.682;9.032;2023-02-08T17:41:31;-1.70;1.00
13470;DHT22;6807;48.682;9.032;2023-02-08T17:43:58;-1.60;1.00
13470;DHT22;6807;48.682;9.032;2023-02-08T17:46:28;-1.60;1.00
13470;DHT22;6807;48.682;9.032;2023-02-08T17:48:57;-1.40;1.00
13470;DHT22;6807;48.682;9.032;2023-02-08T17:51:26;-1.80;1.00
13470;DHT22;6807;48.682;9.032;2023-02-08T17:53:55;-1.80;1.00
13470;DHT22;6807;48.682;9.032;2023-02-08T17:56:23;-1.80;1.00
13470;DHT22;6807;48.682;9.032;2023-02-08T17:58:50;-0.80;1.00
13470;DHT22;6807;48.682;9.032;2023-02-08T18:01:21;-2.00;1.00
13470;DHT22;6807;48.682;9.032;2023-02-08T18:03:53;-1.90;1.00
13470;DHT22;6807;48.682;9.032;2023-02-08T18:06:21;-1.80;1.00
13470;DHT22;6807;48.682;9.032;2023-02-08T18:08:55;-0.40;1.00
13470;DHT22;6807;48.682;9.032;2023-02-08T18:11:38;-2.00;1.00
13470;DHT22;6807;48.682;9.032;2023-02-08T18:14:15;-2.10;1.00
13470;DHT22;6807;48.682;9.032;2023-02-08T18:16:47;-1.40;1.00
13470;DHT22;6807;48.682;9.032;2023-02-08T18:19:24;-1.30;1.00
13470;DHT22;6807;48.682;9.032;2023-02-08T18:21:55;-2.30;1.00
13470;DHT22;6807;48.682;9.032;2023-02-08T18:24:28;-2.50;1.00
13470;DHT22;6807;48.682;9.032;2023-02-08T18:27:19;-2.40;1.00
13470;DHT22;6807;48.682;9.032;2023-02-08T18:29:46;-2.50;1.00
13470;DHT22;6807;48.682;9.032;2023-02-08T18:32:14;-1.10;1.00
13470;DHT22;6807;48.682;9.032;2023-02-08T18:34:41;-2.40;1.00
13470;DHT22;6807;48.682;9.032;2023-02-08T18:37:09;-0.90;1.00
13470;DHT22;6807;48.682;9.032;2023-02-08T18:39:40;-1.20;1.00
13470;DHT22;6807;48.682;9.032;2023-02-08T18:42:14;-1.80;1.00
13470;DHT22;6807;48.682;9.032;2023-02-08T18:44:41;-0.50;1.00
13470;DHT22;6807;48.682;9.032;2023-02-08T18:47:12;-0.60;1.00
13470;DHT22;6807;48.682;9.032;2023-02-08T18:49:39;-1.30;1.00
13470;DHT22;6807;48.682;9.032;2023-02-08T18:52:12;-2.60;1.00
13470;DHT22;6807;48.682;9.032;2023-02-08T18:54:42;-1.40;1.00
13470;DHT22;6807;48.682;9.032;2023-02-08T18:57:11;-2.60;1.00
13470;DHT22;6807;48.682;9.032;2023-02-08T18:59:41;-1.50;1.00
13470;DHT22;6807;48.682;9.032;2023-02-08T19:02:10;-2.70;1.00
13470;DHT22;6807;48.682;9.032;2023-02-08T19:04:41;-2.70;1.00
13470;DHT22;6807;48.682;9.032;2023-02-08T19:07:09;-2.10;23.10
13470;DHT22;6807;48.682;9.032;2023-02-08T19:09:38;-1.60;11.50
13470;DHT22;6807;48.682;9.032;2023-02-08T19:15:11;-3.00;99.90
13470;DHT22;6807;48.682;9.032;2023-02-08T19:17:44;-3.10;99.90
13470;DHT22;6807;48.682;9.032;2023-02-08T19:20:19;-2.90;99.90
13470;DHT22;6807;48.682;9.032;2023-02-08T19:22:46;-2.90;99.90
13470;DHT22;6807;48.682;9.032;2023-02-08T19:25:14;-1.30;99.90
13470;DHT22;6807;48.682;9.032;2023-02-08T19:27:48;-2.90;99.90
13470;DHT22;6807;48.682;9.032;2023-02-08T19:30:18;-2.60;99.90
13470;DHT22;6807;48.682;9.032;2023-02-08T19:32:48;-3.00;99.90
13470;DHT22;6807;48.682;9.032;2023-02-08T19:35:15;-1.50;99.90
13470;DHT22;6807;48.682;9.032;2023-02-08T19:37:42;-1.80;99.90
13470;DHT22;6807;48.682;9.032;2023-02-08T19:40:13;-2.20;99.90
13470;DHT22;6807;48.682;9.032;2023-02-08T19:42:42;-3.50;99.90
13470;DHT22;6807;48.682;9.032;2023-02-08T19:45:19;-3.50;99.90
13470;DHT22;6807;48.682;9.032;2023-02-08T19:47:57;-1.40;99.90
13470;DHT22;6807;48.682;9.032;2023-02-08T19:50:26;-4.70;99.90
13470;DHT22;6807;48.682;9.032;2023-02-08T19:52:53;-2.60;99.90
13470;DHT22;6807;48.682;9.032;2023-02-08T19:55:23;-2.70;99.90
13470;DHT22;6807;48.682;9.032;2023-02-08T19:58:07;-4.40;99.90
13470;DHT22;6807;48.682;9.032;2023-02-08T20:00:42;-2.10;99.90
13470;DHT22;6807;48.682;9.032;2023-02-08T20:03:12;-3.60;99.90
13470;DHT22;6807;48.682;9.032;2023-02-08T20:05:40;-3.80;99.90
13470;DHT22;6807;48.682;9.032;2023-02-08T20:08:10;-2.30;99.90
13470;DHT22;6807;48.682;9.032;2023-02-08T20:10:37;-2.20;99.90
13470;DHT22;6807;48.682;9.032;2023-02-08T20:13:04;-3.00;99.90
13470;DHT22;6807;48.682;9.032;2023-02-08T20:15:33;-2.60;99.90
13470;DHT22;6807;48.682;9.032;2023-02-08T20:18:02;-2.80;99.90
13470;DHT22;6807;48.682;9.032;2023-02-08T20:20:31;-4.20;99.90
13470;DHT22;6807;48.682;9.032;2023-02-08T20:22:59;-4.30;99.90
13470;DHT22;6807;48.682;9.032;2023-02-08T20:25:28;-4.20;99.90
13470;DHT22;6807;48.682;9.032;2023-02-08T20:27:56;-2.80;99.90
13470;DHT22;6807;48.682;9.032;2023-02-08T20:30:23;-2.90;99.90
13470;DHT22;6807;48.682;9.032;2023-02-08T20:32:50;-3.50;99.90
13470;DHT22;6807;48.682;9.032;2023-02-08T20:35:21;-2.80;99.90
13470;DHT22;6807;48.682;9.032;2023-02-08T20:37:53;-5.60;99.90
13470;DHT22;6807;48.682;9.032;2023-02-08T20:40:34;-2.80;99.90
13470;DHT22;6807;48.682;9.032;2023-02-08T20:43:09;-3.40;99.90
13470;DHT22;6807;48.682;9.032;2023-02-08T20:45:39;-2.80;99.90
13470;DHT22;6807;48.682;9.032;2023-02-08T20:48:08;-3.20;99.90
13470;DHT22;6807;48.682;9.032;2023-02-08T20:50:53;-4.30;99.90
13470;DHT22;6807;48.682;9.032;2023-02-08T20:53:34;-2.90;99.90
13470;DHT22;6807;48.682;9.032;2023-02-08T20:56:08;-3.30;99.90
13470;DHT22;6807;48.682;9.032;2023-02-08T20:58:36;-4.30;99.90
13470;DHT22;6807;48.682;9.032;2023-02-08T21:01:06;-4.10;99.90
13470;DHT22;6807;48.682;9.032;2023-02-08T21:03:36;-3.00;99.90
13470;DHT22;6807;48.682;9.032;2023-02-08T21:06:30;-3.80;99.90
13470;DHT22;6807;48.682;9.032;2023-02-08T21:09:11;-3.10;99.90
13470;DHT22;6807;48.682;9.032;2023-02-08T21:11:50;-3.70;99.90
13470;DHT22;6807;48.682;9.032;2023-02-08T21:14:21;-4.40;99.90
13470;DHT22;6807;48.682;9.032;2023-02-08T21:20:19;-5.00;99.90
13470;DHT22;6807;48.682;9.032;2023-02-08T21:22:56;-4.40;99.90
13470;DHT22;6807;48.682;9.032;2023-02-08T21:25:23;-4.60;99.90
13470;DHT22;6807;48.682;9.032;2023-02-08T21:27:50;-4.80;99.90
13470;DHT22;6807;48.682;9.032;2023-02-08T21:33:50;-4.90;99.90
13470;DHT22;6807;48.682;9.032;2023-02-08T21:36:18;-4.80;1.00
13470;DHT22;6807;48.682;9.032;2023-02-08T21:38:56;-4.90;1.00
13470;DHT22;6807;48.682;9.032;2023-02-08T21:41:25;-5.00;99.90
13470;DHT22;6807;48.682;9.032;2023-02-08T21:43:55;-4.90;1.00
13470;DHT22;6807;48.682;9.032;2023-02-08T21:46:23;-5.10;1.00
13470;DHT22;6807;48.682;9.032;2023-02-08T21:49:09;-5.00;1.00
13470;DHT22;6807;48.682;9.032;2023-02-08T21:51:53;-3.60;1.00
13470;DHT22;6807;48.682;9.032;2023-02-08T21:54:51;-5.60;1.00
13470;DHT22;6807;48.682;9.032;2023-02-08T21:57:20;-5.80;1.00
13470;DHT22;6807;48.682;9.032;2023-02-08T21:59:49;-4.40;1.00
13470;DHT22;6807;48.682;9.032;2023-02-08T22:02:18;-4.70;1.00
13470;DHT22;6807;48.682;9.032;2023-02-08T22:04:53;-5.80;1.00
13470;DHT22;6807;48.682;9.032;2023-02-08T22:07:20;-5.80;1.00
13470;DHT22;6807;48.682;9.032;2023-02-08T22:09:47;-5.90;1.00
13470;DHT22;6807;48.682;9.032;2023-02-08T22:12:18;-5.80;1.00
13470;DHT22;6807;48.682;9.032;2023-02-08T22:14:46;-5.90;1.00
13470;DHT22;6807;48.682;9.032;2023-02-08T22:17:14;-4.60;1.00
13470;DHT22;6807;48.682;9.032;2023-02-08T22:19:41;-5.90;1.00
13470;DHT22;6807;48.682;9.032;2023-02-08T22:22:10;-6.00;1.00
13470;DHT22;6807;48.682;9.032;2023-02-08T22:24:37;-6.10;1.00
13470;DHT22;6807;48.682;9.032;2023-02-08T22:27:05;-6.20;1.00
13470;DHT22;6807;48.682;9.032;2023-02-08T22:29:34;-6.30;1.00
13470;DHT22;6807;48.682;9.032;2023-02-08T22:32:01;-6.10;1.00
13470;DHT22;6807;48.682;9.032;2023-02-08T22:34:42;-6.30;1.00
13470;DHT22;6807;48.682;9.032;2023-02-08T22:37:09;-6.10;1.00
13470;DHT22;6807;48.682;9.032;2023-02-08T22:43:16;-7.50;1.00
13470;DHT22;6807;48.682;9.032;2023-02-08T22:45:44;-6.50;1.00
13470;DHT22;6807;48.682;9.032;2023-02-08T22:48:12;-6.60;1.00
13470;DHT22;6807;48.682;9.032;2023-02-08T22:50:39;-6.50;1.00
13470;DHT22;6807;48.682;9.032;2023-02-08T22:53:06;-6.50;1.00
13470;DHT22;6807;48.682;9.032;2023-02-08T22:55:33;-6.60;1.00
13470;DHT22;6807;48.682;9.032;2023-02-08T22:58:00;-6.60;1.00
13470;DHT22;6807;48.682;9.032;2023-02-08T23:00:27;-5.00;1.00
13470;DHT22;6807;48.682;9.032;2023-02-08T23:02:55;-6.90;1.00
13470;DHT22;6807;48.682;9.032;2023-02-08T23:05:22;-5.40;1.00
13470;DHT22;6807;48.682;9.032;2023-02-08T23:07:49;-6.90;1.00
13470;DHT22;6807;48.682;9.032;2023-02-08T23:10:16;-6.70;1.00
13470;DHT22;6807;48.682;9.032;2023-02-08T23:12:43;-6.60;1.00
13470;DHT22;6807;48.682;9.032;2023-02-08T23:15:10;-6.70;1.00
13470;DHT22;6807;48.682;9.032;2023-02-08T23:17:37;-6.50;1.00
13470;DHT22;6807;48.682;9.032;2023-02-08T23:20:06;-6.40;1.00
13470;DHT22;6807;48.682;9.032;2023-02-08T23:22:35;-6.40;1.00
13470;DHT22;6807;48.682;9.032;2023-02-08T23:25:02;-6.70;1.00
13470;DHT22;6807;48.682;9.032;2023-02-08T23:27:29;-6.60;1.00
13470;DHT22;6807;48.682;9.032;2023-02-08T23:29:56;-6.80;1.00
13470;DHT22;6807;48.682;9.032;2023-02-08T23:32:23;-6.80;1.00
13470;DHT22;6807;48.682;9.032;2023-02-08T23:34:50;-6.90;1.00
13470;DHT22;6807;48.682;9.032;2023-02-08T23:37:18;-5.70;1.00
13470;DHT22;6807;48.682;9.032;2023-02-08T23:39:45;-7.10;1.00
13470;DHT22;6807;48.682;9.032;2023-02-08T23:42:12;-5.60;1.00
13470;DHT22;6807;48.682;9.032;2023-02-08T23:44:51;-5.40;1.00
13470;DHT22;6807;48.682;9.032;2023-02-08T23:47:18;-7.20;1.00
13470;DHT22;6807;48.682;9.032;2023-02-08T23:49:45;-7.30;1.00
13470;DHT22;6807;48.682;9.032;2023-02-08T23:52:12;-7.40;1.00
13470;DHT22;6807;48.682;9.032;2023-02-08T23:54:40;-6.00;1.00